sensor_id;sensor_type;location;lat;lon;timestamp;pressure;altitude;pressure_sealevel;temperature;humidity
77263;BME280;66373;52.334;4.806;2023-01-16T00:03:10;99431.63;;;17.14;57.49
77263;BME280;66373;52.334;4.806;2023-01-16T00:05:37;99419.47;;;17.14;57.56
77263;BME280;66373;52.334;4.806;2023-01-16T00:08:04;99414.28;;;17.14;57.58
77263;BME280;66373;52.334;4.806;2023-01-16T00:10:31;99409.97;;;17.13;57.49
77263;BME280;66373;52.334;4.806;2023-01-16T00:12:58;99407.38;;;17.13;57.53
77263;BME280;66373;52.334;4.806;2023-01-16T00:15:24;99399.59;;;17.13;57.42
77263;BME280;66373;52.334;4.806;2023-01-16T00:17:51;99408.28;;;17.12;57.46
77263;BME280;66373;52.334;4.806;2023-01-16T00:20:19;99395.31;;;17.12;57.47
77263;BME280;66373;52.334;4.806;2023-01-16T00:22:46;99390.09;;;17.12;57.32
77263;BME280;66373;52.334;4.806;2023-01-16T00:25:13;99384.91;;;17.12;57.39
77263;BME280;66373;52.334;4.806;2023-01-16T00:27:40;99380.63;;;17.11;57.40
77263;BME280;66373;52.334;4.806;2023-01-16T00:30:08;99377.13;;;17.12;57.39
77263;BME280;66373;52.334;4.806;2023-01-16T00:32:35;99376.22;;;17.13;57.39
77263;BME280;66373;52.334;4.806;2023-01-16T00:35:02;99369.31;;;17.12;57.51
77263;BME280;66373;52.334;4.806;2023-01-16T00:37:30;99348.78;;;17.06;57.37
77263;BME280;66373;52.334;4.806;2023-01-16T00:39:57;99352.09;;;17.10;57.35
77263;BME280;66373;52.334;4.806;2023-01-16T00:42:24;99345.16;;;17.10;57.59
77263;BME280;66373;52.334;4.806;2023-01-16T00:44:51;99338.25;;;17.09;57.37
77263;BME280;66373;52.334;4.806;2023-01-16T00:47:17;99335.66;;;17.09;57.51
77263;BME280;66373;52.334;4.806;2023-01-16T00:49:44;99329.56;;;17.10;57.19
77263;BME280;66373;52.334;4.806;2023-01-16T00:52:11;99332.16;;;17.10;57.10
77263;BME280;66373;52.334;4.806;2023-01-16T00:54:39;99320.06;;;17.09;57.27
77263;BME280;66373;52.334;4.806;2023-01-16T00:57:06;99308.84;;;17.09;57.20
77263;BME280;66373;52.334;4.806;2023-01-16T00:59:33;99298.44;;;17.09;57.10
77263;BME280;66373;52.334;4.806;2023-01-16T01:01:59;99297.59;;;17.08;57.17
77263;BME280;66373;52.334;4.806;2023-01-16T01:04:27;99288.97;;;17.08;57.06
77263;BME280;66373;52.334;4.806;2023-01-16T01:06:54;99282.91;;;17.07;57.06
77263;BME280;66373;52.334;4.806;2023-01-16T01:09:21;99276.81;;;17.08;57.07
77263;BME280;66373;52.334;4.806;2023-01-16T01:11:49;99275.13;;;17.07;56.96
77263;BME280;66373;52.334;4.806;2023-01-16T01:14:16;99268.25;;;17.06;56.96
77263;BME280;66373;52.334;4.806;2023-01-16T01:16:42;99272.59;;;17.06;56.89
77263;BME280;66373;52.334;4.806;2023-01-16T01:19:09;99257.84;;;17.06;56.86
77263;BME280;66373;52.334;4.806;2023-01-16T01:21:36;99263.03;;;17.06;56.99
77263;BME280;66373;52.334;4.806;2023-01-16T01:24:03;99263.03;;;17.06;56.84
77263;BME280;66373;52.334;4.806;2023-01-16T01:26:30;99263.94;;;17.05;56.76
77263;BME280;66373;52.334;4.806;2023-01-16T01:28:58;99253.56;;;17.05;56.92
77263;BME280;66373;52.334;4.806;2023-01-16T01:31:25;99245.78;;;17.05;56.80
77263;BME280;66373;52.334;4.806;2023-01-16T01:33:51;99242.31;;;17.05;56.72
77263;BME280;66373;52.334;4.806;2023-01-16T01:36:18;99231.09;;;17.04;56.50
77263;BME280;66373;52.334;4.806;2023-01-16T01:38:45;99223.28;;;17.04;56.67
77263;BME280;66373;52.334;4.806;2023-01-16T01:41:15;99221.59;;;17.03;56.61
77263;BME280;66373;52.334;4.806;2023-01-16T01:43:45;99214.59;;;17.05;56.54
77263;BME280;66373;52.334;4.806;2023-01-16T01:46:20;99217.25;;;17.04;56.68
77263;BME280;66373;52.334;4.806;2023-01-16T01:48:50;99217.25;;;17.04;56.67
77263;BME280;66373;52.334;4.806;2023-01-16T01:51:19;99210.31;;;17.04;56.57
77263;BME280;66373;52.334;4.806;2023-01-16T01:53:51;99214.66;;;17.04;56.54
77263;BME280;66373;52.334;4.806;2023-01-16T01:56:25;99212.06;;;17.04;56.33
77263;BME280;66373;52.334;4.806;2023-01-16T01:58:56;99210.38;;;17.03;56.40
77263;BME280;66373;52.334;4.806;2023-01-16T02:01:26;99209.53;;;17.02;56.36
77263;BME280;66373;52.334;4.806;2023-01-16T02:03:57;99197.44;;;17.01;56.42
77263;BME280;66373;52.334;4.806;2023-01-16T02:06:28;99197.44;;;17.01;56.39
77263;BME280;66373;52.334;4.806;2023-01-16T02:08:57;99188.75;;;17.02;56.63
77263;BME280;66373;52.334;4.806;2023-01-16T02:11:30;99174.91;;;17.02;56.50
77263;BME280;66373;52.334;4.806;2023-01-16T02:14:00;99157.63;;;17.01;56.38
77263;BME280;66373;52.334;4.806;2023-01-16T02:16:29;99161.09;;;17.01;56.29
77263;BME280;66373;52.334;4.806;2023-01-16T02:19:18;99163.69;;;17.01;56.36
77263;BME280;66373;52.334;4.806;2023-01-16T02:25:18;99143.81;;;17.00;56.33
77263;BME280;66373;52.334;4.806;2023-01-16T02:28:06;99136.94;;;16.99;56.37
77263;BME280;66373;52.334;4.806;2023-01-16T02:31:02;99136.06;;;16.99;56.21
77263;BME280;66373;52.334;4.806;2023-01-16T02:33:40;99139.53;;;16.99;56.21
77263;BME280;66373;52.334;4.806;2023-01-16T02:36:16;99134.31;;;16.99;56.47
77263;BME280;66373;52.334;4.806;2023-01-16T02:38:53;99136.94;;;16.99;56.18
77263;BME280;66373;52.334;4.806;2023-01-16T02:41:27;99135.25;;;16.98;56.28
77263;BME280;66373;52.334;4.806;2023-01-16T02:44:01;99137.00;;;16.98;56.40
77263;BME280;66373;52.334;4.806;2023-01-16T02:46:35;99134.47;;;16.96;56.39
77263;BME280;66373;52.334;4.806;2023-01-16T02:49:11;99130.94;;;16.97;56.43
77263;BME280;66373;52.334;4.806;2023-01-16T02:51:45;99137.06;;;16.96;56.37
77263;BME280;66373;52.334;4.806;2023-01-16T02:54:20;99114.59;;;16.95;56.20
77263;BME280;66373;52.334;4.806;2023-01-16T02:56:54;99111.94;;;16.96;56.30
77263;BME280;66373;52.334;4.806;2023-01-16T02:59:24;99103.28;;;16.96;56.14
77263;BME280;66373;52.334;4.806;2023-01-16T03:01:52;99106.72;;;16.96;56.26
77263;BME280;66373;52.334;4.806;2023-01-16T03:04:52;99086.94;;;16.94;56.15
77263;BME280;66373;52.334;4.806;2023-01-16T03:07:50;99088.63;;;16.95;56.03
77263;BME280;66373;52.334;4.806;2023-01-16T03:10:33;99076.53;;;16.94;56.13
77263;BME280;66373;52.334;4.806;2023-01-16T03:13:13;99078.28;;;16.93;56.07
77263;BME280;66373;52.334;4.806;2023-01-16T03:15:49;99066.16;;;16.94;56.07
77263;BME280;66373;52.334;4.806;2023-01-16T03:18:25;99050.63;;;16.92;56.20
77263;BME280;66373;52.334;4.806;2023-01-16T03:20:56;99040.19;;;16.94;55.97
77263;BME280;66373;52.334;4.806;2023-01-16T03:23:33;99025.50;;;16.93;56.00
77263;BME280;66373;52.334;4.806;2023-01-16T03:26:04;99017.72;;;16.93;55.91
77263;BME280;66373;52.334;4.806;2023-01-16T03:28:36;99007.31;;;16.93;55.96
77263;BME280;66373;52.334;4.806;2023-01-16T03:31:13;99007.31;;;16.93;55.87
77263;BME280;66373;52.334;4.806;2023-01-16T03:33:47;99000.44;;;16.92;56.02
77263;BME280;66373;52.334;4.806;2023-01-16T03:36:24;98999.59;;;16.91;56.00
77263;BME280;66373;52.334;4.806;2023-01-16T03:38:54;98992.66;;;16.92;55.90
77263;BME280;66373;52.334;4.806;2023-01-16T03:41:24;98991.75;;;16.93;55.84
77263;BME280;66373;52.334;4.806;2023-01-16T03:44:00;99000.44;;;16.92;55.93
77263;BME280;66373;52.334;4.806;2023-01-16T03:46:31;98997.00;;;16.91;55.85
77263;BME280;66373;52.334;4.806;2023-01-16T03:49:03;98985.78;;;16.91;55.94
77263;BME280;66373;52.334;4.806;2023-01-16T03:51:35;98970.34;;;16.88;55.78
77263;BME280;66373;52.334;4.806;2023-01-16T03:54:06;98971.88;;;16.92;55.77
77263;BME280;66373;52.334;4.806;2023-01-16T03:56:37;98971.09;;;16.90;55.70
77263;BME280;66373;52.334;4.806;2023-01-16T03:59:07;98957.22;;;16.91;55.83
77263;BME280;66373;52.334;4.806;2023-01-16T04:01:38;98950.44;;;16.88;55.82
77263;BME280;66373;52.334;4.806;2023-01-16T04:04:11;98944.41;;;16.88;55.73
77263;BME280;66373;52.334;4.806;2023-01-16T04:06:44;98938.28;;;16.89;55.90
77263;BME280;66373;52.334;4.806;2023-01-16T04:09:18;98931.31;;;16.89;55.57
77263;BME280;66373;52.334;4.806;2023-01-16T04:11:49;98918.50;;;16.86;55.45
77263;BME280;66373;52.334;4.806;2023-01-16T04:14:19;98918.41;;;16.88;55.58
77263;BME280;66373;52.334;4.806;2023-01-16T04:16:49;98910.63;;;16.88;55.66
77263;BME280;66373;52.334;4.806;2023-01-16T04:19:18;98902.22;;;16.83;55.41
77263;BME280;66373;52.334;4.806;2023-01-16T04:21:46;98906.28;;;16.88;55.59
77263;BME280;66373;52.334;4.806;2023-01-16T04:24:14;98885.56;;;16.87;55.55
77263;BME280;66373;52.334;4.806;2023-01-16T04:26:41;98869.22;;;16.85;55.76
77263;BME280;66373;52.334;4.806;2023-01-16T04:29:07;98869.16;;;16.86;55.53
77263;BME280;66373;52.334;4.806;2023-01-16T04:31:34;98864.88;;;16.85;55.47
77263;BME280;66373;52.334;4.806;2023-01-16T04:34:01;98855.31;;;16.86;55.34
77263;BME280;66373;52.334;4.806;2023-01-16T04:36:29;98853.66;;;16.85;55.46
77263;BME280;66373;52.334;4.806;2023-01-16T04:38:56;98843.25;;;16.85;55.35
77263;BME280;66373;52.334;4.806;2023-01-16T04:41:23;98829.34;;;16.86;55.30
77263;BME280;66373;52.334;4.806;2023-01-16T04:44:04;98822.47;;;16.85;55.41
77263;BME280;66373;52.334;4.806;2023-01-16T04:46:31;98818.97;;;16.86;55.26
77263;BME280;66373;52.334;4.806;2023-01-16T04:48:58;98799.13;;;16.85;55.16
77263;BME280;66373;52.334;4.806;2023-01-16T04:51:25;98781.84;;;16.84;55.26
77263;BME280;66373;52.334;4.806;2023-01-16T04:53:53;98795.69;;;16.84;55.13
77263;BME280;66373;52.334;4.806;2023-01-16T04:56:20;98776.81;;;16.81;55.17
77263;BME280;66373;52.334;4.806;2023-01-16T04:58:46;98762.00;;;16.83;55.36
77263;BME280;66373;52.334;4.806;2023-01-16T05:01:17;98759.41;;;16.83;55.25
77263;BME280;66373;52.334;4.806;2023-01-16T05:03:44;98751.59;;;16.83;55.14
77263;BME280;66373;52.334;4.806;2023-01-16T05:06:10;98749.00;;;16.83;55.36
77263;BME280;66373;52.334;4.806;2023-01-16T05:08:37;98741.22;;;16.83;55.28
77263;BME280;66373;52.334;4.806;2023-01-16T05:11:06;98743.03;;;16.81;55.13
77263;BME280;66373;52.334;4.806;2023-01-16T05:13:32;98721.50;;;16.79;55.02
77263;BME280;66373;52.334;4.806;2023-01-16T05:15:59;98717.16;;;16.79;55.14
77263;BME280;66373;52.334;4.806;2023-01-16T05:18:26;98698.97;;;16.79;55.02
77263;BME280;66373;52.334;4.806;2023-01-16T05:20:53;98703.34;;;16.79;54.89
77263;BME280;66373;52.334;4.806;2023-01-16T05:23:21;98695.53;;;16.79;55.05
77263;BME280;66373;52.334;4.806;2023-01-16T05:25:48;98686.91;;;16.78;55.15
77263;BME280;66373;52.334;4.806;2023-01-16T05:28:16;98687.75;;;16.79;54.93
77263;BME280;66373;52.334;4.806;2023-01-16T05:30:43;98674.00;;;16.77;55.02
77263;BME280;66373;52.334;4.806;2023-01-16T05:33:09;98663.63;;;16.77;54.96
77263;BME280;66373;52.334;4.806;2023-01-16T05:35:36;98651.56;;;16.76;54.91
77263;BME280;66373;52.334;4.806;2023-01-16T05:38:03;98655.00;;;16.76;54.75
77263;BME280;66373;52.334;4.806;2023-01-16T05:40:30;98635.97;;;16.76;54.94
77263;BME280;66373;52.334;4.806;2023-01-16T05:42:57;98626.50;;;16.75;54.94
77263;BME280;66373;52.334;4.806;2023-01-16T05:45:25;98623.91;;;16.75;54.95
77263;BME280;66373;52.334;4.806;2023-01-16T05:47:52;98612.00;;;16.71;54.89
77263;BME280;66373;52.334;4.806;2023-01-16T05:50:18;98601.53;;;16.72;54.72
77263;BME280;66373;52.334;4.806;2023-01-16T05:52:47;98592.06;;;16.71;54.93
77263;BME280;66373;52.334;4.806;2023-01-16T05:55:14;98581.69;;;16.71;54.91
77263;BME280;66373;52.334;4.806;2023-01-16T05:57:41;98586.03;;;16.71;54.88
77263;BME280;66373;52.334;4.806;2023-01-16T06:00:10;98586.13;;;16.69;54.79
77263;BME280;66373;52.334;4.806;2023-01-16T06:02:38;98576.56;;;16.70;54.93
77263;BME280;66373;52.334;4.806;2023-01-16T06:05:06;98566.28;;;16.68;54.84
77263;BME280;66373;52.334;4.806;2023-01-16T06:07:33;98557.66;;;16.68;54.79
77263;BME280;66373;52.334;4.806;2023-01-16T06:10:00;98551.53;;;16.69;54.66
77263;BME280;66373;52.334;4.806;2023-01-16T06:12:27;98548.94;;;16.69;54.61
77263;BME280;66373;52.334;4.806;2023-01-16T06:14:53;98539.47;;;16.68;54.59
77263;BME280;66373;52.334;4.806;2023-01-16T06:17:20;98535.13;;;16.68;54.50
77263;BME280;66373;52.334;4.806;2023-01-16T06:19:48;98535.13;;;16.68;54.60
77263;BME280;66373;52.334;4.806;2023-01-16T06:22:16;98523.91;;;16.68;54.66
77263;BME280;66373;52.334;4.806;2023-01-16T06:24:43;98513.69;;;16.65;54.51
77263;BME280;66373;52.334;4.806;2023-01-16T06:27:09;98505.81;;;16.66;54.62
77263;BME280;66373;52.334;4.806;2023-01-16T06:29:38;98510.16;;;16.66;54.53
77263;BME280;66373;52.334;4.806;2023-01-16T06:32:06;98508.47;;;16.65;54.66
77263;BME280;66373;52.334;4.806;2023-01-16T06:34:33;98503.28;;;16.65;54.92
77263;BME280;66373;52.334;4.806;2023-01-16T06:37:01;98495.50;;;16.65;54.66
77263;BME280;66373;52.334;4.806;2023-01-16T06:39:28;98494.66;;;16.64;54.65
77263;BME280;66373;52.334;4.806;2023-01-16T06:41:55;98486.88;;;16.64;54.71
77263;BME280;66373;52.334;4.806;2023-01-16T06:44:22;98492.06;;;16.64;54.60
77263;BME280;66373;52.334;4.806;2023-01-16T06:46:48;98482.53;;;16.65;54.63
77263;BME280;66373;52.334;4.806;2023-01-16T06:49:15;98486.03;;;16.63;54.66
77263;BME280;66373;52.334;4.806;2023-01-16T06:51:42;98472.31;;;16.61;54.52
77263;BME280;66373;52.334;4.806;2023-01-16T06:54:11;98478.31;;;16.62;54.53
77263;BME280;66373;52.334;4.806;2023-01-16T06:56:39;98472.31;;;16.61;54.63
77263;BME280;66373;52.334;4.806;2023-01-16T06:59:06;98465.44;;;16.60;54.75
77263;BME280;66373;52.334;4.806;2023-01-16T07:01:34;98457.72;;;16.59;54.68
77263;BME280;66373;52.334;4.806;2023-01-16T07:04:01;98447.34;;;16.59;54.61
77263;BME280;66373;52.334;4.806;2023-01-16T07:06:28;98437.03;;;16.57;54.77
77263;BME280;66373;52.334;4.806;2023-01-16T07:08:56;98427.56;;;16.56;54.79
77263;BME280;66373;52.334;4.806;2023-01-16T07:11:24;98426.66;;;16.57;54.59
77263;BME280;66373;52.334;4.806;2023-01-16T07:13:52;98417.19;;;16.56;54.80
77263;BME280;66373;52.334;4.806;2023-01-16T07:16:40;98412.00;;;16.56;54.51
77263;BME280;66373;52.334;4.806;2023-01-16T07:19:24;98394.75;;;16.55;54.64
77263;BME280;66373;52.334;4.806;2023-01-16T07:22:10;98378.34;;;16.55;54.76
77263;BME280;66373;52.334;4.806;2023-01-16T07:24:56;98380.94;;;16.55;54.83
77263;BME280;66373;52.334;4.806;2023-01-16T07:27:26;98378.44;;;16.53;54.71
77263;BME280;66373;52.334;4.806;2023-01-16T07:29:53;98371.41;;;16.55;54.76
77263;BME280;66373;52.334;4.806;2023-01-16T07:32:21;98367.13;;;16.54;54.60
77263;BME280;66373;52.334;4.806;2023-01-16T07:34:48;98346.53;;;16.51;54.80
77263;BME280;66373;52.334;4.806;2023-01-16T07:37:16;98358.44;;;16.55;54.61
77263;BME280;66373;52.334;4.806;2023-01-16T07:39:43;98336.81;;;16.55;54.87
77263;BME280;66373;52.334;4.806;2023-01-16T07:42:10;98330.81;;;16.54;54.87
77263;BME280;66373;52.334;4.806;2023-01-16T07:44:39;98328.19;;;16.54;54.70
77263;BME280;66373;52.334;4.806;2023-01-16T07:47:07;98328.13;;;16.56;54.77
77263;BME280;66373;52.334;4.806;2023-01-16T07:49:34;98328.97;;;16.56;54.69
77263;BME280;66373;52.334;4.806;2023-01-16T07:52:01;98320.25;;;16.57;54.62
77263;BME280;66373;52.334;4.806;2023-01-16T07:54:29;98309.88;;;16.57;54.64
77263;BME280;66373;52.334;4.806;2023-01-16T07:56:56;98297.81;;;16.56;54.74
77263;BME280;66373;52.334;4.806;2023-01-16T07:59:24;98290.78;;;16.58;54.82
77263;BME280;66373;52.334;4.806;2023-01-16T08:01:53;98291.88;;;16.54;54.69
77263;BME280;66373;52.334;4.806;2023-01-16T08:04:20;98285.59;;;16.58;54.86
77263;BME280;66373;52.334;4.806;2023-01-16T08:06:48;98270.88;;;16.59;54.83
77263;BME280;66373;52.334;4.806;2023-01-16T08:09:15;98266.50;;;16.59;54.66
77263;BME280;66373;52.334;4.806;2023-01-16T08:11:42;98256.13;;;16.59;54.79
77263;BME280;66373;52.334;4.806;2023-01-16T08:14:13;98252.63;;;16.60;54.77
77263;BME280;66373;52.334;4.806;2023-01-16T08:16:40;98237.88;;;16.61;54.72
77263;BME280;66373;52.334;4.806;2023-01-16T08:19:09;98235.19;;;16.62;54.68
77263;BME280;66373;52.334;4.806;2023-01-16T08:21:37;98226.50;;;16.63;54.79
77263;BME280;66373;52.334;4.806;2023-01-16T08:24:05;98216.09;;;16.63;54.70
77263;BME280;66373;52.334;4.806;2023-01-16T08:26:32;98210.00;;;16.65;54.66
77263;BME280;66373;52.334;4.806;2023-01-16T08:29:00;98206.56;;;16.64;54.68
77263;BME280;66373;52.334;4.806;2023-01-16T08:31:28;98200.44;;;16.65;54.77
77263;BME280;66373;52.334;4.806;2023-01-16T08:33:55;98193.50;;;16.66;54.75
77263;BME280;66373;52.334;4.806;2023-01-16T08:36:24;98189.06;;;16.68;54.58
77263;BME280;66373;52.334;4.806;2023-01-16T08:38:52;98176.91;;;16.68;54.61
77263;BME280;66373;52.334;4.806;2023-01-16T08:41:19;98169.13;;;16.68;54.65
77263;BME280;66373;52.334;4.806;2023-01-16T08:44:04;98159.59;;;16.69;54.73
77263;BME280;66373;52.334;4.806;2023-01-16T08:46:54;98161.25;;;16.70;54.66
77263;BME280;66373;52.334;4.806;2023-01-16T08:49:41;98154.41;;;16.69;54.75
77263;BME280;66373;52.334;4.806;2023-01-16T08:52:28;98147.44;;;16.69;54.63
77263;BME280;66373;52.334;4.806;2023-01-16T08:54:56;98137.91;;;16.70;54.69
77263;BME280;66373;52.334;4.806;2023-01-16T08:57:24;98134.38;;;16.71;54.65
77263;BME280;66373;52.334;4.806;2023-01-16T08:59:53;98119.63;;;16.71;54.67
77263;BME280;66373;52.334;4.806;2023-01-16T09:02:21;98122.16;;;16.73;54.50
77263;BME280;66373;52.334;4.806;2023-01-16T09:04:48;98121.31;;;16.72;54.56
77263;BME280;66373;52.334;4.806;2023-01-16T09:07:16;98116.03;;;16.74;54.47
77263;BME280;66373;52.334;4.806;2023-01-16T09:09:45;98106.56;;;16.73;54.47
77263;BME280;66373;52.334;4.806;2023-01-16T09:12:13;98103.06;;;16.74;54.85
77263;BME280;66373;52.334;4.806;2023-01-16T09:14:58;98098.69;;;16.74;54.55
77263;BME280;66373;52.334;4.806;2023-01-16T09:17:26;98096.84;;;16.76;54.71
77263;BME280;66373;52.334;4.806;2023-01-16T09:19:54;98096.84;;;16.76;54.59
77263;BME280;66373;52.334;4.806;2023-01-16T09:22:21;98093.41;;;16.76;54.69
77263;BME280;66373;52.334;4.806;2023-01-16T09:24:50;98084.69;;;16.77;54.64
77263;BME280;66373;52.334;4.806;2023-01-16T09:27:18;98078.75;;;16.75;54.86
77263;BME280;66373;52.334;4.806;2023-01-16T09:29:46;98076.75;;;16.80;54.63
77263;BME280;66373;52.334;4.806;2023-01-16T09:32:13;98074.97;;;16.80;54.60
77263;BME280;66373;52.334;4.806;2023-01-16T09:34:42;98057.63;;;16.81;54.53
77263;BME280;66373;52.334;4.806;2023-01-16T09:37:10;98055.97;;;16.80;54.59
77263;BME280;66373;52.334;4.806;2023-01-16T09:39:37;98050.59;;;16.83;54.54
77263;BME280;66373;52.334;4.806;2023-01-16T09:42:30;98042.81;;;16.83;54.57
77263;BME280;66373;52.334;4.806;2023-01-16T09:45:19;98039.28;;;16.84;54.59
77263;BME280;66373;52.334;4.806;2023-01-16T09:47:50;98029.81;;;16.83;54.58
77263;BME280;66373;52.334;4.806;2023-01-16T09:50:26;98028.81;;;16.85;54.47
77263;BME280;66373;52.334;4.806;2023-01-16T09:52:57;98024.44;;;16.86;54.57
77263;BME280;66373;52.334;4.806;2023-01-16T09:55:45;98020.09;;;16.86;54.48
77263;BME280;66373;52.334;4.806;2023-01-16T09:58:36;98018.25;;;16.88;54.50
77263;BME280;66373;52.334;4.806;2023-01-16T10:01:09;98008.69;;;16.89;54.51
77263;BME280;66373;52.334;4.806;2023-01-16T10:03:38;98000.91;;;16.89;54.48
77263;BME280;66373;52.334;4.806;2023-01-16T10:06:20;98009.50;;;16.89;54.52
77263;BME280;66373;52.334;4.806;2023-01-16T10:09:00;97993.81;;;16.91;54.41
77263;BME280;66373;52.334;4.806;2023-01-16T10:11:35;97992.91;;;16.92;54.44
77263;BME280;66373;52.334;4.806;2023-01-16T10:14:22;97986.03;;;16.91;54.36
77263;BME280;66373;52.334;4.806;2023-01-16T10:17:01;97984.38;;;16.90;54.41
77263;BME280;66373;52.334;4.806;2023-01-16T10:19:43;97977.22;;;16.93;54.48
77263;BME280;66373;52.334;4.806;2023-01-16T10:22:24;97975.47;;;16.94;54.47
77263;BME280;66373;52.334;4.806;2023-01-16T10:25:00;97976.22;;;16.96;54.42
77263;BME280;66373;52.334;4.806;2023-01-16T10:27:38;97965.72;;;16.98;54.45
77263;BME280;66373;52.334;4.806;2023-01-16T10:30:13;97957.84;;;16.99;54.44
77263;BME280;66373;52.334;4.806;2023-01-16T10:32:44;97958.69;;;17.00;54.54
77263;BME280;66373;52.334;4.806;2023-01-16T10:35:17;97953.47;;;17.00;54.08
77263;BME280;66373;52.334;4.806;2023-01-16T10:37:48;97952.56;;;17.01;54.46
77263;BME280;66373;52.334;4.806;2023-01-16T10:40:19;97952.47;;;17.02;54.41
77263;BME280;66373;52.334;4.806;2023-01-16T10:42:56;97940.31;;;17.03;54.47
77263;BME280;66373;52.334;4.806;2023-01-16T10:45:58;97941.16;;;17.03;54.40
77263;BME280;66373;52.334;4.806;2023-01-16T10:48:43;97940.22;;;17.04;54.46
77263;BME280;66373;52.334;4.806;2023-01-16T10:51:28;97925.00;;;16.98;54.32
77263;BME280;66373;52.334;4.806;2023-01-16T10:53:55;97924.63;;;17.04;54.27
77263;BME280;66373;52.334;4.806;2023-01-16T10:56:24;97920.19;;;17.06;54.29
77263;BME280;66373;52.334;4.806;2023-01-16T10:58:52;97915.72;;;17.08;54.31
77263;BME280;66373;52.334;4.806;2023-01-16T11:01:23;97919.16;;;17.09;54.38
77263;BME280;66373;52.334;4.806;2023-01-16T11:03:53;97911.28;;;17.10;54.35
77263;BME280;66373;52.334;4.806;2023-01-16T11:06:23;97901.81;;;17.09;54.28
77263;BME280;66373;52.334;4.806;2023-01-16T11:08:54;97905.16;;;17.11;54.28
77263;BME280;66373;52.334;4.806;2023-01-16T11:11:22;97895.50;;;17.13;54.28
77263;BME280;66373;52.334;4.806;2023-01-16T11:14:12;97880.84;;;17.12;54.35
77263;BME280;66373;52.334;4.806;2023-01-16T11:17:12;97883.34;;;17.14;54.33
77263;BME280;66373;52.334;4.806;2023-01-16T11:20:07;97868.59;;;17.14;54.30
77263;BME280;66373;52.334;4.806;2023-01-16T11:22:38;97872.81;;;17.15;54.32
77263;BME280;66373;52.334;4.806;2023-01-16T11:25:09;97862.44;;;17.15;54.30
77263;BME280;66373;52.334;4.806;2023-01-16T11:27:43;97864.22;;;17.15;54.45
77263;BME280;66373;52.334;4.806;2023-01-16T11:30:16;97865.03;;;17.15;54.43
77263;BME280;66373;52.334;4.806;2023-01-16T11:32:48;97856.31;;;17.16;54.42
77263;BME280;66373;52.334;4.806;2023-01-16T11:35:18;97848.53;;;17.16;54.47
77263;BME280;66373;52.334;4.806;2023-01-16T11:37:49;97851.13;;;17.16;54.54
77263;BME280;66373;52.334;4.806;2023-01-16T11:40:20;97839.91;;;17.16;54.64
77263;BME280;66373;52.334;4.806;2023-01-16T11:42:52;97826.81;;;17.17;54.74
77263;BME280;66373;52.334;4.806;2023-01-16T11:45:42;97822.69;;;17.15;54.54
77263;BME280;66373;52.334;4.806;2023-01-16T11:48:34;97821.41;;;17.20;54.66
77263;BME280;66373;52.334;4.806;2023-01-16T11:51:04;97819.75;;;17.19;54.52
77263;BME280;66373;52.334;4.806;2023-01-16T11:53:34;97813.63;;;17.20;54.66
77263;BME280;66373;52.334;4.806;2023-01-16T11:59:44;97802.31;;;17.21;54.53
77263;BME280;66373;52.334;4.806;2023-01-16T12:02:26;97797.94;;;17.22;54.61
77263;BME280;66373;52.334;4.806;2023-01-16T12:05:04;97793.56;;;17.22;54.57
77263;BME280;66373;52.334;4.806;2023-01-16T12:08:06;97792.66;;;17.23;54.56
77263;BME280;66373;52.334;4.806;2023-01-16T12:10:42;97784.84;;;17.23;54.69
77263;BME280;66373;52.334;4.806;2023-01-16T12:13:12;97781.31;;;17.24;54.56
77263;BME280;66373;52.334;4.806;2023-01-16T12:16:09;97766.56;;;17.25;54.63
77263;BME280;66373;52.334;4.806;2023-01-16T12:18:45;97769.06;;;17.26;54.46
77263;BME280;66373;52.334;4.806;2023-01-16T12:21:26;97764.81;;;17.25;54.48
77263;BME280;66373;52.334;4.806;2023-01-16T12:24:17;97757.75;;;17.27;54.58
77263;BME280;66373;52.334;4.806;2023-01-16T12:26:55;97751.63;;;17.28;54.44
77263;BME280;66373;52.334;4.806;2023-01-16T12:29:35;97746.41;;;17.28;54.49
77263;BME280;66373;52.334;4.806;2023-01-16T12:32:24;97751.63;;;17.28;54.44
77263;BME280;66373;52.334;4.806;2023-01-16T12:35:06;97745.38;;;17.31;54.56
77263;BME280;66373;52.334;4.806;2023-01-16T12:37:53;97739.34;;;17.30;54.45
77263;BME280;66373;52.334;4.806;2023-01-16T12:40:34;97741.03;;;17.32;54.41
77263;BME280;66373;52.334;4.806;2023-01-16T12:43:13;97742.69;;;17.33;54.42
77263;BME280;66373;52.334;4.806;2023-01-16T12:45:49;97735.81;;;17.32;54.31
77263;BME280;66373;52.334;4.806;2023-01-16T12:48:53;97733.13;;;17.33;54.49
77263;BME280;66373;52.334;4.806;2023-01-16T12:51:35;97730.44;;;17.35;54.39
77263;BME280;66373;52.334;4.806;2023-01-16T12:57:41;97709.00;;;17.31;54.39
77263;BME280;66373;52.334;4.806;2023-01-16T13:00:15;97713.91;;;17.36;54.33
77263;BME280;66373;52.334;4.806;2023-01-16T13:02:48;97710.38;;;17.37;54.40
77263;BME280;66373;52.334;4.806;2023-01-16T13:05:22;97706.84;;;17.38;54.30
77263;BME280;66373;52.334;4.806;2023-01-16T13:07:52;97702.59;;;17.37;54.34
77263;BME280;66373;52.334;4.806;2023-01-16T13:10:27;97704.25;;;17.38;54.39
77263;BME280;66373;52.334;4.806;2023-01-16T13:13:28;97691.16;;;17.39;54.49
77263;BME280;66373;52.334;4.806;2023-01-16T13:16:00;97696.34;;;17.39;54.39
77263;BME280;66373;52.334;4.806;2023-01-16T13:18:32;97690.22;;;17.40;54.27
77263;BME280;66373;52.334;4.806;2023-01-16T13:21:04;97692.69;;;17.42;54.31
77263;BME280;66373;52.334;4.806;2023-01-16T13:23:33;97680.88;;;17.38;54.29
77263;BME280;66373;52.334;4.806;2023-01-16T13:26:09;97681.34;;;17.43;54.43
77263;BME280;66373;52.334;4.806;2023-01-16T13:28:42;97682.19;;;17.43;54.17
77263;BME280;66373;52.334;4.806;2023-01-16T13:31:18;97681.97;;;17.46;54.22
77263;BME280;66373;52.334;4.806;2023-01-16T13:33:49;97686.34;;;17.46;54.33
77263;BME280;66373;52.334;4.806;2023-01-16T13:36:37;97677.09;;;17.42;54.31
77263;BME280;66373;52.334;4.806;2023-01-16T13:39:32;97677.72;;;17.45;54.61